Time;durP1;ratioP1;P1;durP2;ratioP2;P2;SDS_P1;SDS_P2;PMS_P1;PMS_P2;Temp;Humidity;BMP_temperature;BMP_pressure;BME280_temperature;BME280_humidity;BME280_pressure;Samples;Min_cycle;Max_cycle;Signal;HPM_P1;HPM_P2
2023/06/05 00:00:21;;;;;;;4.05;3.20;;;13.10;99.90;;;;;;5072188;28;20051;-74
2023/06/05 00:02:52;;;;;;;4.50;2.92;;;13.10;99.90;;;;;;5053552;28;20097;-76
2023/06/05 00:05:27;;;;;;;5.70;3.20;;;13.10;99.90;;;;;;5082514;28;20149;-75
2023/06/05 00:07:53;;;;;;;5.32;3.45;;;13.20;99.90;;;;;;5070447;28;20097;-74
2023/06/05 00:10:24;;;;;;;5.18;3.20;;;13.20;99.90;;;;;;5081675;28;20052;-75
2023/06/05 00:12:57;;;;;;;5.57;2.95;;;13.20;99.90;;;;;;5102135;28;20062;-75
2023/06/05 00:15:23;;;;;;;5.15;3.10;;;13.20;99.90;;;;;;5070349;28;20172;-75
2023/06/05 00:17:51;;;;;;;3.95;2.60;;;13.20;99.90;;;;;;5069873;28;20064;-75
2023/06/05 00:20:23;;;;;;;4.90;2.72;;;13.20;99.90;;;;;;5055348;28;20398;-74
2023/06/05 00:22:50;;;;;;;3.53;2.20;;;13.20;99.90;;;;;;5103323;28;20453;-75
2023/06/05 00:25:15;;;;;;;6.22;2.75;;;13.20;99.90;;;;;;5069264;28;20167;-74
2023/06/05 00:27:44;;;;;;;4.90;2.60;;;13.20;99.90;;;;;;5069842;28;20127;-75
2023/06/05 00:30:10;;;;;;;4.32;2.67;;;13.10;99.90;;;;;;5053107;28;20123;-75
2023/06/05 00:32:42;;;;;;;4.40;2.50;;;13.20;99.90;;;;;;5085521;28;20136;-75
2023/06/05 00:35:09;;;;;;;4.32;2.53;;;13.10;99.90;;;;;;5086946;28;20177;-74
2023/06/05 00:37:46;;;;;;;3.97;2.70;;;13.10;99.90;;;;;;5071613;28;20406;-74
2023/06/05 00:40:16;;;;;;;4.03;2.35;;;13.10;99.90;;;;;;5064256;28;20415;-74
2023/06/05 00:42:45;;;;;;;4.03;2.47;;;13.10;99.90;;;;;;5089173;28;20486;-74
2023/06/05 00:45:21;;;;;;;3.75;2.58;;;13.10;99.90;;;;;;5075458;28;20127;-74
2023/06/05 00:47:48;;;;;;;3.50;2.25;;;13.10;99.90;;;;;;5074443;28;20056;-75
2023/06/05 00:50:15;;;;;;;5.00;2.67;;;12.30;99.90;;;;;;5041001;28;20048;-74
2023/06/05 00:52:42;;;;;;;4.45;2.70;;;13.10;99.90;;;;;;5049645;28;20143;-74
2023/06/05 00:55:17;;;;;;;4.10;2.58;;;13.30;99.90;;;;;;5067758;28;20044;-75
2023/06/05 00:57:44;;;;;;;3.72;2.45;;;13.00;99.90;;;;;;5089908;28;20048;-74
2023/06/05 01:00:17;;;;;;;5.25;2.80;;;13.00;99.90;;;;;;5090531;28;20105;-74
2023/06/05 01:02:53;;;;;;;3.92;2.70;;;13.00;99.90;;;;;;5039139;28;20096;-74
2023/06/05 01:05:36;;;;;;;5.32;2.88;;;13.00;99.90;;;;;;5075396;28;20044;-73
2023/06/05 01:08:03;;;;;;;4.50;3.42;;;13.00;99.90;;;;;;5069725;28;20063;-74
2023/06/05 01:10:39;;;;;;;4.18;3.10;;;13.00;99.90;;;;;;5071901;28;20569;-76
2023/06/05 01:13:28;;;;;;;4.32;3.22;;;13.00;99.90;;;;;;5053773;28;20156;-74
2023/06/05 01:15:56;;;;;;;5.70;3.08;;;13.00;99.90;;;;;;5054917;28;20044;-75
2023/06/05 01:18:26;;;;;;;5.00;3.45;;;13.00;99.90;;;;;;5088817;28;20052;-74
2023/06/05 01:20:56;;;;;;;3.83;2.97;;;13.00;99.90;;;;;;5047119;28;20072;-74
2023/06/05 01:23:35;;;;;;;5.55;3.47;;;12.20;99.90;;;;;;5039994;28;20098;-75
2023/06/05 01:26:04;;;;;;;5.28;2.95;;;13.00;99.90;;;;;;5072404;28;20060;-74
2023/06/05 01:28:34;;;;;;;3.95;2.70;;;13.00;99.90;;;;;;5088937;28;20056;-75
2023/06/05 01:31:19;;;;;;;5.57;3.22;;;13.00;99.90;;;;;;5088222;28;20134;-74
2023/06/05 01:34:07;;;;;;;4.53;2.93;;;13.00;99.90;;;;;;5070344;28;21019;-74
2023/06/05 01:36:36;;;;;;;4.30;2.55;;;13.00;99.90;;;;;;5039509;28;20094;-75
2023/06/05 01:39:09;;;;;;;4.60;3.10;;;13.00;99.90;;;;;;5088003;28;20048;-74
2023/06/05 01:41:58;;;;;;;6.05;3.30;;;13.00;99.90;;;;;;5089983;28;20093;-75
2023/06/05 01:44:36;;;;;;;5.30;3.05;;;13.00;99.90;;;;;;5089347;28;20170;-74
2023/06/05 01:47:02;;;;;;;4.15;2.88;;;13.00;99.90;;;;;;5090164;28;20099;-74
2023/06/05 01:49:42;;;;;;;5.50;3.47;;;13.00;99.90;;;;;;5074592;28;20105;-74
2023/06/05 01:52:15;;;;;;;4.38;3.33;;;13.00;99.90;;;;;;5073996;28;20047;-74
2023/06/05 01:54:48;;;;;;;5.47;3.05;;;13.00;99.90;;;;;;5090750;28;20505;-74
2023/06/05 01:57:15;;;;;;;5.28;3.50;;;13.00;99.90;;;;;;5071865;28;20570;-74
2023/06/05 01:59:45;;;;;;;5.38;3.28;;;13.00;99.90;;;;;;5072950;28;20121;-75
2023/06/05 02:02:18;;;;;;;5.18;2.92;;;12.90;99.90;;;;;;5073284;28;20059;-74
2023/06/05 02:04:47;;;;;;;4.30;2.92;;;12.90;99.90;;;;;;5064093;28;20051;-75
2023/06/05 02:07:14;;;;;;;3.75;2.90;;;13.00;99.90;;;;;;5072035;28;20384;-75
2023/06/05 02:09:42;;;;;;;3.92;2.80;;;13.00;99.90;;;;;;5088960;28;20059;-75
2023/06/05 02:12:08;;;;;;;4.40;2.85;;;12.90;99.90;;;;;;5085644;28;20060;-75
2023/06/05 02:14:37;;;;;;;4.80;2.70;;;12.90;99.90;;;;;;5062529;28;20051;-75
2023/06/05 02:17:08;;;;;;;4.13;2.90;;;12.90;99.90;;;;;;5072484;28;20441;-74
2023/06/05 02:19:41;;;;;;;3.95;2.70;;;12.90;99.90;;;;;;5073170;28;20203;-74
2023/06/05 02:22:16;;;;;;;3.30;2.58;;;12.80;99.90;;;;;;5089044;28;20931;-75
2023/06/05 02:25:11;;;;;;;3.45;2.40;;;11.90;99.90;;;;;;5086513;28;20101;-74
2023/06/05 02:27:46;;;;;;;3.55;2.58;;;12.80;99.90;;;;;;5063678;28;20082;-74
2023/06/05 02:30:15;;;;;;;3.42;2.85;;;12.80;99.90;;;;;;5088852;28;20067;-75
2023/06/05 02:32:48;;;;;;;4.70;2.92;;;12.80;99.90;;;;;;5054937;28;20510;-74
2023/06/05 02:35:19;;;;;;;4.57;2.38;;;12.80;99.90;;;;;;5088657;28;20079;-75
2023/06/05 02:37:46;;;;;;;4.43;2.58;;;12.80;99.90;;;;;;5070593;28;20086;-74
2023/06/05 02:40:17;;;;;;;3.95;2.60;;;12.80;99.90;;;;;;5072474;28;20371;-74
2023/06/05 02:42:47;;;;;;;4.20;2.65;;;12.80;99.90;;;;;;5080082;28;20056;-74
2023/06/05 02:45:18;;;;;;;3.72;2.45;;;12.80;99.90;;;;;;5055528;28;20055;-75
2023/06/05 02:47:53;;;;;;;6.43;2.90;;;12.80;99.90;;;;;;5087296;28;20048;-75
2023/06/05 02:50:22;;;;;;;4.35;2.63;;;12.80;99.90;;;;;;5072284;28;20052;-75
2023/06/05 02:52:52;;;;;;;5.15;2.88;;;12.80;99.90;;;;;;5087961;28;20584;-74
2023/06/05 02:55:22;;;;;;;4.10;2.50;;;12.90;99.90;;;;;;5090006;28;20044;-74
2023/06/05 02:58:00;;;;;;;5.20;2.90;;;12.90;99.90;;;;;;5072800;28;20977;-74
2023/06/05 03:00:31;;;;;;;3.97;2.85;;;12.80;99.90;;;;;;5087035;28;20051;-75
2023/06/05 03:03:12;;;;;;;4.15;2.67;;;12.80;99.90;;;;;;5084380;28;20161;-74
2023/06/05 03:05:40;;;;;;;4.95;2.70;;;12.80;99.90;;;;;;5103226;28;20411;-74
2023/06/05 03:08:16;;;;;;;5.05;2.50;;;12.80;99.90;;;;;;5072866;28;20127;-75
2023/06/05 03:10:43;;;;;;;3.67;2.22;;;12.80;99.90;;;;;;5088068;28;20074;-75
2023/06/05 03:13:13;;;;;;;5.10;3.10;;;12.80;99.90;;;;;;5086202;28;20052;-75
2023/06/05 03:15:53;;;;;;;5.00;2.97;;;12.80;99.90;;;;;;5073660;28;20048;-74
2023/06/05 03:18:25;;;;;;;3.80;2.72;;;12.80;99.90;;;;;;5071975;28;20445;-75
2023/06/05 03:20:55;;;;;;;5.25;3.13;;;12.80;99.90;;;;;;5071894;28;20127;-74
2023/06/05 03:23:27;;;;;;;5.13;3.00;;;12.20;99.90;;;;;;5103850;28;20105;-74
2023/06/05 03:26:02;;;;;;;4.35;3.10;;;12.90;99.90;;;;;;5086289;28;20442;-74
2023/06/05 03:28:33;;;;;;;6.90;3.08;;;12.90;99.90;;;;;;5062807;28;20048;-73
2023/06/05 03:31:00;;;;;;;4.78;2.45;;;12.90;99.90;;;;;;5071699;28;20080;-74
2023/06/05 03:33:25;;;;;;;4.28;2.47;;;12.90;99.90;;;;;;5070098;28;20048;-74
2023/06/05 03:36:01;;;;;;;4.03;2.55;;;12.80;99.90;;;;;;5087491;28;20101;-74
2023/06/05 03:38:40;;;;;;;5.80;2.60;;;12.80;99.90;;;;;;5051800;28;20086;-74
2023/06/05 03:41:09;;;;;;;4.60;2.60;;;12.80;99.90;;;;;;5054402;28;20051;-74
2023/06/05 03:43:39;;;;;;;4.28;2.80;;;12.80;99.90;;;;;;5087454;28;20063;-74
2023/06/05 03:46:18;;;;;;;3.72;2.22;;;12.80;99.90;;;;;;5072226;28;20062;-75
2023/06/05 03:48:58;;;;;;;4.35;2.33;;;12.80;99.90;;;;;;5086334;28;20048;-74
2023/06/05 03:51:32;;;;;;;4.18;2.20;;;12.80;99.90;;;;;;5087276;28;20051;-75
2023/06/05 03:54:03;;;;;;;3.70;2.47;;;12.80;99.90;;;;;;5058377;28;20113;-73
2023/06/05 03:56:34;;;;;;;4.15;2.47;;;12.80;99.90;;;;;;5070360;28;20529;-74
2023/06/05 03:59:09;;;;;;;2.95;2.17;;;12.80;99.90;;;;;;5066113;28;20156;-74
2023/06/05 04:01:38;;;;;;;3.38;1.98;;;12.80;99.90;;;;;;5085192;28;20086;-73
2023/06/05 04:04:08;;;;;;;3.10;2.08;;;12.80;99.90;;;;;;5053098;28;20159;-73
2023/06/05 04:06:34;;;;;;;4.65;2.00;;;12.80;99.90;;;;;;5070840;28;20093;-72
2023/06/05 04:09:09;;;;;;;4.97;2.40;;;12.80;99.90;;;;;;5087645;28;20063;-73
2023/06/05 04:11:52;;;;;;;3.03;2.00;;;12.80;99.90;;;;;;5069924;28;20514;-74
2023/06/05 04:14:21;;;;;;;3.13;2.40;;;12.90;99.90;;;;;;5086459;28;20066;-74
2023/06/05 04:16:52;;;;;;;3.63;2.50;;;12.90;99.90;;;;;;5071586;28;20086;-74
2023/06/05 04:19:30;;;;;;;3.50;2.35;;;12.90;99.90;;;;;;5088643;28;20048;-75
2023/06/05 04:22:15;;;;;;;4.25;2.13;;;12.90;99.90;;;;;;5070702;28;20052;-74
2023/06/05 04:24:41;;;;;;;3.70;2.33;;;12.90;99.90;;;;;;5054055;28;20039;-74
2023/06/05 04:27:28;;;;;;;3.50;2.22;;;12.90;99.90;;;;;;5087422;28;20048;-74
2023/06/05 04:30:03;;;;;;;3.75;2.20;;;12.90;99.90;;;;;;5086241;28;20153;-73
2023/06/05 04:32:38;;;;;;;3.88;2.47;;;12.90;99.90;;;;;;5085695;28;20083;-74
2023/06/05 04:35:20;;;;;;;3.28;2.40;;;13.00;99.90;;;;;;5048480;28;20476;-74
2023/06/05 04:37:51;;;;;;;3.50;2.60;;;13.00;99.90;;;;;;5087307;28;20173;-74
2023/06/05 04:40:30;;;;;;;4.90;2.90;;;13.00;99.90;;;;;;5070576;28;20044;-75
2023/06/05 04:43:05;;;;;;;4.13;2.70;;;13.00;99.90;;;;;;5086005;28;20063;-75
2023/06/05 04:45:34;;;;;;;4.38;2.40;;;13.10;99.90;;;;;;5063316;28;20044;-75
2023/06/05 04:48:07;;;;;;;4.93;2.78;;;13.10;99.90;;;;;;5086694;28;20066;-75
2023/06/05 04:50:35;;;;;;;5.75;2.55;;;13.10;99.90;;;;;;5036451;28;20131;-74
2023/06/05 04:53:13;;;;;;;3.92;2.67;;;13.10;99.90;;;;;;5063003;28;20775;-74
2023/06/05 04:55:39;;;;;;;6.38;2.60;;;13.20;99.90;;;;;;5070088;28;20131;-74
2023/06/05 04:58:10;;;;;;;5.07;2.60;;;13.20;99.90;;;;;;5070515;28;20052;-74
2023/06/05 05:00:36;;;;;;;5.95;2.90;;;13.20;99.90;;;;;;5093874;28;20445;-75
2023/06/05 05:03:11;;;;;;;3.75;3.20;;;13.20;99.90;;;;;;5085609;28;20066;-74
2023/06/05 05:05:48;;;;;;;4.13;2.88;;;13.20;99.90;;;;;;5086199;28;20052;-74
2023/06/05 05:08:16;;;;;;;4.50;2.72;;;13.20;99.90;;;;;;5086108;28;20125;-74
2023/06/05 05:10:41;;;;;;;3.72;2.83;;;13.30;99.90;;;;;;5086150;28;20056;-75
2023/06/05 05:13:17;;;;;;;5.40;2.83;;;13.30;99.90;;;;;;5084627;28;20093;-75
2023/06/05 05:15:47;;;;;;;7.25;2.97;;;13.30;99.90;;;;;;5085881;28;20056;-74
2023/06/05 05:18:19;;;;;;;4.53;3.00;;;13.40;99.90;;;;;;5069902;28;20044;-75
2023/06/05 05:20:46;;;;;;;5.97;3.08;;;13.40;99.90;;;;;;5052901;28;20056;-74
2023/06/05 05:23:15;;;;;;;5.60;3.55;;;13.40;99.90;;;;;;5085979;28;20144;-74
2023/06/05 05:25:41;;;;;;;5.57;3.33;;;13.50;99.90;;;;;;5067634;28;20052;-75
2023/06/05 05:28:08;;;;;;;5.90;3.10;;;13.50;99.90;;;;;;5087237;28;20067;-74
2023/06/05 05:30:36;;;;;;;5.93;3.38;;;13.50;99.90;;;;;;5073323;28;20064;-74
2023/06/05 05:33:05;;;;;;;4.20;3.00;;;13.50;99.90;;;;;;5089296;28;20070;-74
2023/06/05 05:35:35;;;;;;;5.05;3.40;;;13.50;99.90;;;;;;5090038;28;20056;-74
2023/06/05 05:38:00;;;;;;;4.55;3.10;;;13.50;99.90;;;;;;5073736;28;20109;-75
2023/06/05 05:40:28;;;;;;;5.90;3.05;;;12.80;99.90;;;;;;5089310;28;20032;-75
2023/06/05 05:42:58;;;;;;;7.47;3.80;;;13.50;99.90;;;;;;5088160;28;20044;-74
2023/06/05 05:45:27;;;;;;;6.03;3.05;;;13.60;99.90;;;;;;5073252;28;20105;-74
2023/06/05 05:47:54;;;;;;;5.30;3.05;;;13.50;99.90;;;;;;5073207;28;20048;-74
2023/06/05 05:50:21;;;;;;;6.20;2.90;;;13.60;99.90;;;;;;5056815;28;20130;-74
2023/06/05 05:52:50;;;;;;;5.55;2.70;;;13.60;99.90;;;;;;5087797;28;20056;-74
2023/06/05 05:55:17;;;;;;;3.50;2.92;;;13.60;99.90;;;;;;5089525;28;20139;-74
2023/06/05 05:57:48;;;;;;;5.28;3.25;;;13.70;99.90;;;;;;5058014;28;20086;-74
2023/06/05 06:00:15;;;;;;;4.70;3.40;;;13.70;99.90;;;;;;5073299;28;20044;-74
2023/06/05 06:02:47;;;;;;;5.53;2.88;;;13.80;99.90;;;;;;5088960;28;20054;-75
2023/06/05 06:05:23;;;;;;;7.18;3.15;;;13.80;99.90;;;;;;5074836;28;20044;-74
2023/06/05 06:07:52;;;;;;;4.90;3.00;;;13.80;99.90;;;;;;5066630;28;20048;-74
2023/06/05 06:10:19;;;;;;;5.70;2.90;;;13.90;99.90;;;;;;5090389;28;20051;-73
2023/06/05 06:12:46;;;;;;;7.13;2.83;;;13.90;99.90;;;;;;5070373;28;20570;-74
2023/06/05 06:15:18;;;;;;;4.88;3.08;;;14.00;99.90;;;;;;5075300;28;20501;-74
2023/06/05 06:17:53;;;;;;;3.67;2.95;;;14.00;99.90;;;;;;5092654;28;20091;-73
2023/06/05 06:20:22;;;;;;;5.55;3.05;;;14.10;99.90;;;;;;5059918;28;20044;-74
2023/06/05 06:22:53;;;;;;;4.53;2.72;;;14.10;99.90;;;;;;5068747;28;20563;-73
2023/06/05 06:25:21;;;;;;;4.53;2.72;;;14.20;99.90;;;;;;5073489;28;20131;-73
2023/06/05 06:27:53;;;;;;;4.07;2.80;;;14.20;99.90;;;;;;5088975;28;20059;-73
2023/06/05 06:30:39;;;;;;;5.20;2.70;;;14.20;99.90;;;;;;5089823;28;20043;-73
2023/06/05 06:33:06;;;;;;;4.80;3.05;;;14.20;99.90;;;;;;5088645;28;20071;-73
2023/06/05 06:35:38;;;;;;;5.13;2.97;;;14.30;99.90;;;;;;5038686;28;20114;-75
2023/06/05 06:38:13;;;;;;;5.55;2.92;;;14.30;99.90;;;;;;5088693;28;20127;-74
2023/06/05 06:40:51;;;;;;;3.67;2.70;;;14.40;99.90;;;;;;5072362;28;20064;-74
2023/06/05 06:43:31;;;;;;;5.22;3.10;;;14.40;99.90;;;;;;5073437;28;20134;-75
2023/06/05 06:46:00;;;;;;;4.13;2.80;;;14.40;99.90;;;;;;5069913;28;20074;-74
2023/06/05 06:48:26;;;;;;;4.82;2.72;;;14.50;99.90;;;;;;5071287;28;20044;-74
2023/06/05 06:50:57;;;;;;;3.83;2.72;;;14.60;99.90;;;;;;5040897;28;20176;-74
2023/06/05 06:53:23;;;;;;;4.25;2.90;;;14.60;99.90;;;;;;5054446;28;20095;-75
2023/06/05 06:55:50;;;;;;;5.18;3.30;;;14.70;99.90;;;;;;5089205;28;20127;-75
2023/06/05 06:58:17;;;;;;;8.15;3.70;;;14.70;99.90;;;;;;5071222;28;20150;-74
2023/06/05 07:00:50;;;;;;;5.85;3.42;;;14.80;99.90;;;;;;5049421;28;20097;-75
2023/06/05 07:03:16;;;;;;;6.35;3.35;;;14.90;99.90;;;;;;5047908;28;20070;-75
2023/06/05 07:05:43;;;;;;;5.78;3.15;;;14.90;99.90;;;;;;5090458;28;20071;-76
2023/06/05 07:08:12;;;;;;;5.20;3.00;;;14.90;99.90;;;;;;5089156;28;20095;-76
2023/06/05 07:10:42;;;;;;;5.57;3.08;;;14.90;99.90;;;;;;5088880;28;20135;-74
2023/06/05 07:13:15;;;;;;;5.30;3.30;;;15.00;99.90;;;;;;5088896;28;20050;-75
2023/06/05 07:15:49;;;;;;;6.53;3.45;;;14.10;99.90;;;;;;5073699;28;20459;-75
2023/06/05 07:18:24;;;;;;;5.80;3.40;;;15.00;99.90;;;;;;5064544;28;20410;-75
2023/06/05 07:20:58;;;;;;;5.05;3.00;;;15.10;99.90;;;;;;5056727;28;20047;-75
2023/06/05 07:23:51;;;;;;;4.25;2.88;;;15.10;99.90;;;;;;5089125;28;20056;-74
2023/06/05 07:26:45;;;;;;;6.00;3.33;;;15.10;99.90;;;;;;5071926;28;20063;-74
2023/06/05 07:29:19;;;;;;;5.68;3.05;;;15.20;99.90;;;;;;5088240;28;20056;-74
2023/06/05 07:31:48;;;;;;;4.50;3.25;;;15.20;99.90;;;;;;5070673;28;20407;-74
2023/06/05 07:34:14;;;;;;;5.45;3.35;;;15.30;99.90;;;;;;5087130;28;20406;-74
2023/06/05 07:36:56;;;;;;;4.22;3.33;;;15.30;99.90;;;;;;5068266;28;20542;-75
2023/06/05 07:39:41;;;;;;;4.75;3.15;;;15.30;99.90;;;;;;5088637;28;20040;-74
2023/06/05 07:42:26;;;;;;;6.22;3.35;;;15.40;99.90;;;;;;5074089;28;20163;-74
2023/06/05 07:44:56;;;;;;;5.65;3.10;;;15.40;99.90;;;;;;5054919;28;20139;-75
2023/06/05 07:47:23;;;;;;;5.30;2.88;;;14.50;99.90;;;;;;5088378;28;20097;-74
2023/06/05 07:50:05;;;;;;;4.70;2.67;;;15.50;99.90;;;;;;5053869;28;20052;-75
2023/06/05 07:52:47;;;;;;;4.55;3.60;;;15.50;99.90;;;;;;5089349;28;20042;-75
2023/06/05 07:55:25;;;;;;;4.70;3.40;;;15.50;99.90;;;;;;5059134;28;20493;-75
2023/06/05 07:58:04;;;;;;;6.20;3.85;;;15.60;99.90;;;;;;5045622;28;20084;-76
2023/06/05 08:00:43;;;;;;;;;;;15.70;99.90;;;;;;5086784;28;20047;-76
2023/06/05 08:03:13;;;;;;;5.05;2.60;;;15.70;99.90;;;;;;5087848;28;19924;-75
2023/06/05 08:05:39;;;;;;;3.90;2.30;;;15.80;99.90;;;;;;5086497;28;20067;-75
2023/06/05 08:08:07;;;;;;;4.43;2.60;;;15.90;99.90;;;;;;5070896;28;20398;-75
2023/06/05 08:10:39;;;;;;;4.32;2.58;;;16.00;99.90;;;;;;5073071;28;20127;-74
2023/06/05 08:13:09;;;;;;;5.63;2.70;;;17.00;99.90;;;;;;5070460;28;20484;-74
2023/06/05 08:15:36;;;;;;;5.15;3.13;;;16.10;99.90;;;;;;5085674;28;20055;-74
2023/06/05 08:18:11;;;;;;;4.60;2.78;;;16.20;99.90;;;;;;5063927;28;20048;-75
2023/06/05 08:20:37;;;;;;;3.72;2.72;;;16.30;99.90;;;;;;5071069;28;20556;-76
2023/06/05 08:23:05;;;;;;;4.35;2.80;;;16.30;99.90;;;;;;5070350;28;20060;-75
2023/06/05 08:25:31;;;;;;;5.65;2.50;;;16.40;99.90;;;;;;5085786;28;20151;-74
2023/06/05 08:28:00;;;;;;;4.53;2.60;;;16.40;99.90;;;;;;5103070;28;20047;-74
2023/06/05 08:30:26;;;;;;;4.22;2.63;;;16.50;99.90;;;;;;5053795;28;20047;-74
2023/06/05 08:32:53;;;;;;;4.10;2.40;;;16.60;99.90;;;;;;5053751;28;20047;-74
2023/06/05 08:35:24;;;;;;;3.75;2.58;;;16.70;99.90;;;;;;5070439;28;20048;-74
2023/06/05 08:37:55;;;;;;;5.13;3.10;;;16.70;99.90;;;;;;5085587;28;20055;-75
2023/06/05 08:40:41;;;;;;;4.20;2.53;;;16.80;99.90;;;;;;5072930;28;20042;-75
2023/06/05 08:43:08;;;;;;;3.45;2.58;;;16.90;99.90;;;;;;5052904;28;20064;-75
2023/06/05 08:45:36;;;;;;;4.10;2.45;;;17.00;99.90;;;;;;5045509;28;20052;-73
2023/06/05 08:48:24;;;;;;;4.03;2.50;;;17.10;99.90;;;;;;5085555;28;20056;-73
2023/06/05 08:51:00;;;;;;;5.13;2.50;;;17.20;99.90;;;;;;5103384;28;20048;-74
2023/06/05 08:53:39;;;;;;;2.80;2.13;;;17.30;99.90;;;;;;5102462;28;20052;-74
2023/06/05 08:56:13;;;;;;;3.70;2.70;;;17.30;99.90;;;;;;5039166;28;20047;-74
2023/06/05 08:58:46;;;;;;;4.25;2.55;;;17.20;99.90;;;;;;5069819;28;20047;-73
2023/06/05 09:01:12;;;;;;;4.90;2.38;;;17.30;99.90;;;;;;5052549;28;20040;-76
2023/06/05 09:03:42;;;;;;;3.70;2.47;;;17.30;99.90;;;;;;5090586;28;20052;-74
2023/06/05 09:06:10;;;;;;;4.07;2.28;;;17.40;99.90;;;;;;5073573;28;20097;-74
2023/06/05 09:08:36;;;;;;;5.10;2.40;;;17.50;99.90;;;;;;5072725;28;20140;-74
2023/06/05 09:11:28;;;;;;;5.03;2.33;;;17.50;99.90;;;;;;5090700;28;20542;-75
2023/06/05 09:14:01;;;;;;;3.90;2.90;;;17.60;99.90;;;;;;5091350;28;20490;-74
2023/06/05 09:16:56;;;;;;;3.70;2.53;;;17.70;99.90;;;;;;5090205;28;20051;-74
2023/06/05 09:19:37;;;;;;;5.45;2.65;;;17.70;99.90;;;;;;5089018;28;20577;-74
2023/06/05 09:22:31;;;;;;;4.10;2.33;;;17.80;99.90;;;;;;5087893;28;20376;-75
2023/06/05 09:25:02;;;;;;;5.70;2.80;;;18.00;99.90;;;;;;5089868;28;20055;-75
2023/06/05 09:27:39;;;;;;;3.42;2.47;;;18.20;99.90;;;;;;5089710;28;20559;-74
2023/06/05 09:30:07;;;;;;;4.25;2.80;;;18.30;99.90;;;;;;5072786;28;20494;-74
2023/06/05 09:32:41;;;;;;;5.18;2.28;;;18.60;99.90;;;;;;5056301;28;20060;-74
2023/06/05 09:35:23;;;;;;;5.00;2.50;;;18.70;99.90;;;;;;5073411;28;20108;-74
2023/06/05 09:39:01;;;;;;;5.07;2.47;;;18.70;99.90;;;;;;5089726;28;20463;-75
2023/06/05 09:41:29;;;;;;;;;;;18.80;99.90;;;;;;5032380;28;20431;-74
2023/06/05 09:44:16;;;;;;;4.20;2.90;;;19.00;99.90;;;;;;5005338;28;20400;-80
2023/06/05 09:47:13;;;;;;;4.32;2.70;;;19.10;99.90;;;;;;4988479;28;20460;-75
2023/06/05 09:50:14;;;;;;;3.47;2.40;;;19.50;99.90;;;;;;5019339;28;20218;-79
2023/06/05 09:53:02;;;;;;;4.75;2.60;;;19.80;99.90;;;;;;5017536;28;20085;-74
2023/06/05 09:55:30;;;;;;;3.92;2.50;;;20.00;99.90;;;;;;4986250;28;20069;-74
2023/06/05 09:58:13;;;;;;;4.78;2.72;;;20.20;99.90;;;;;;5003497;28;20115;-74
2023/06/05 10:00:47;;;;;;;4.13;2.40;;;20.50;99.90;;;;;;5003592;28;20053;-73
2023/06/05 10:03:19;;;;;;;3.92;2.72;;;20.60;99.90;;;;;;4986586;28;20145;-72
2023/06/05 10:06:07;;;;;;;4.68;2.58;;;20.70;99.80;;;;;;5004070;28;20104;-76
2023/06/05 10:08:59;;;;;;;3.17;2.17;;;20.50;99.00;;;;;;4986344;28;20103;-77
2023/06/05 10:11:40;;;;;;;5.38;3.05;;;20.50;99.10;;;;;;5020924;28;20115;-76
2023/06/05 10:14:09;;;;;;;4.15;2.88;;;20.80;99.30;;;;;;5017853;28;20069;-75
2023/06/05 10:16:52;;;;;;;4.25;2.50;;;20.60;99.20;;;;;;5038367;28;20087;-75
2023/06/05 10:19:24;;;;;;;4.32;2.63;;;20.80;98.90;;;;;;5037322;28;20115;-75
2023/06/05 10:21:53;;;;;;;4.47;2.47;;;21.00;98.70;;;;;;5037793;28;20543;-75
2023/06/05 10:24:38;;;;;;;3.35;2.33;;;21.00;98.20;;;;;;5037034;28;20064;-73
2023/06/05 10:27:11;;;;;;;4.40;2.63;;;21.10;97.90;;;;;;5026538;28;20076;-74
2023/06/05 10:30:25;;;;;;;4.72;3.20;;;21.50;97.40;;;;;;5038105;28;20184;-75
2023/06/05 10:33:38;;;;;;;4.40;2.50;;;21.90;96.50;;;;;;5020382;28;20139;-75
2023/06/05 10:37:08;;;;;;;4.53;2.72;;;22.50;96.20;;;;;;5012430;28;20119;-74
2023/06/05 10:40:09;;;;;;;3.38;2.17;;;23.00;95.20;;;;;;5037295;28;20072;-75
2023/06/05 10:43:37;;;;;;;5.07;2.55;;;23.60;94.10;;;;;;5023542;28;20079;-75
2023/06/05 10:46:38;;;;;;;4.38;2.25;;;23.80;93.00;;;;;;5087712;28;20181;-74
2023/06/05 10:49:27;;;;;;;3.38;2.08;;;23.90;92.60;;;;;;5089163;28;20064;-76
2023/06/05 10:52:03;;;;;;;3.25;2.22;;;23.80;93.00;;;;;;5022180;28;20064;-75
2023/06/05 10:55:07;;;;;;;3.60;2.57;;;23.60;92.50;;;;;;5107483;28;20300;-73
2023/06/05 10:58:16;;;;;;;3.47;2.08;;;23.60;91.60;;;;;;5106417;28;20672;-73
2023/06/05 11:01:20;;;;;;;3.17;2.00;;;23.40;91.90;;;;;;5084158;28;20109;-74
2023/06/05 11:04:09;;;;;;;5.03;2.17;;;23.60;91.40;;;;;;5085395;28;20431;-74
2023/06/05 11:07:24;;;;;;;3.92;1.90;;;23.80;92.50;;;;;;5087893;28;20040;-74
2023/06/05 11:10:26;;;;;;;4.10;2.33;;;24.00;91.50;;;;;;5102885;28;20079;-74
2023/06/05 11:13:48;;;;;;;3.55;2.10;;;23.90;90.80;;;;;;5087507;28;20051;-74
2023/06/05 11:16:49;;;;;;;5.80;2.35;;;23.60;91.00;;;;;;5104188;27;20059;-74
2023/06/05 11:19:38;;;;;;;4.18;2.20;;;23.70;91.40;;;;;;5089088;28;20669;-74
2023/06/05 11:22:12;;;;;;;4.28;2.40;;;23.70;91.50;;;;;;5086067;28;20472;-74
2023/06/05 11:24:39;;;;;;;4.10;2.13;;;23.80;91.80;;;;;;5030251;28;20525;-74
2023/06/05 11:27:09;;;;;;;4.38;2.22;;;23.90;91.70;;;;;;5070108;28;20705;-75
2023/06/05 11:30:13;;;;;;;4.75;2.40;;;23.90;91.40;;;;;;5088212;28;20059;-76
2023/06/05 11:32:52;;;;;;;4.45;2.33;;;23.90;91.30;;;;;;5070810;28;20048;-74
2023/06/05 11:35:46;;;;;;;3.65;2.10;;;23.90;90.20;;;;;;5085843;28;20036;-74
2023/06/05 11:38:33;;;;;;;3.80;2.10;;;24.00;90.70;;;;;;5087733;28;20060;-74
2023/06/05 11:41:19;;;;;;;4.30;2.10;;;24.30;90.50;;;;;;5070440;28;20100;-74
2023/06/05 11:44:02;;;;;;;3.33;2.10;;;24.20;90.00;;;;;;5118835;27;20068;-75
2023/06/05 11:46:53;;;;;;;3.72;2.13;;;24.30;90.20;;;;;;5087319;28;20460;-75
2023/06/05 11:49:44;;;;;;;3.05;1.95;;;24.60;89.90;;;;;;5089123;28;20164;-74
2023/06/05 11:52:28;;;;;;;4.18;2.00;;;24.50;86.70;;;;;;5102136;28;20047;-75
2023/06/05 11:56:15;;;;;;;3.70;2.03;;;24.70;88.60;;;;;;5061013;28;21420;-75
2023/06/05 11:58:42;;;;;;;4.50;2.10;;;24.70;86.30;;;;;;5087017;28;20188;-75
2023/06/05 12:01:33;;;;;;;4.47;2.13;;;24.60;87.90;;;;;;5103366;28;20474;-75
2023/06/05 12:04:09;;;;;;;3.15;2.10;;;24.70;87.30;;;;;;5086259;27;20056;-74
2023/06/05 12:06:47;;;;;;;2.90;2.00;;;24.70;87.00;;;;;;5085828;28;20060;-74
2023/06/05 12:09:27;;;;;;;4.15;1.92;;;24.90;85.60;;;;;;5086892;28;20051;-74
2023/06/05 12:12:06;;;;;;;4.78;1.70;;;25.10;86.00;;;;;;5086805;28;20110;-74
2023/06/05 12:15:14;;;;;;;3.00;1.95;;;25.50;84.30;;;;;;5088228;28;20498;-74
2023/06/05 12:17:54;;;;;;;3.55;2.08;;;25.60;83.60;;;;;;5083390;28;20063;-74
2023/06/05 12:23:36;;;;;;;4.28;2.08;;;25.90;82.90;;;;;;5044507;28;20057;-74
2023/06/05 12:26:07;;;;;;;3.05;1.90;;;26.00;82.70;;;;;;5028505;28;20060;-73
2023/06/05 12:28:46;;;;;;;5.15;2.38;;;26.20;82.50;;;;;;4994866;28;20170;-75
2023/06/05 12:31:57;;;;;;;4.10;2.40;;;26.30;80.90;;;;;;5029876;28;20052;-75
2023/06/05 12:34:51;;;;;;;3.33;1.90;;;26.60;79.60;;;;;;5027541;28;20051;-74
2023/06/05 12:37:25;;;;;;;3.58;2.30;;;26.80;79.20;;;;;;5027382;28;20048;-75
2023/06/05 12:39:55;;;;;;;3.75;2.17;;;26.90;79.00;;;;;;5011544;28;20071;-75
2023/06/05 12:42:43;;;;;;;3.35;1.95;;;27.00;78.50;;;;;;5027831;28;20055;-75
2023/06/05 12:45:20;;;;;;;4.53;2.05;;;26.50;77.70;;;;;;5030246;28;20057;-75
2023/06/05 12:47:54;;;;;;;4.63;2.40;;;27.20;77.70;;;;;;5028261;28;20049;-75
2023/06/05 12:50:33;;;;;;;3.17;2.00;;;26.90;76.60;;;;;;5025772;28;20169;-75
2023/06/05 12:53:17;;;;;;;3.05;2.05;;;27.00;76.70;;;;;;5012250;28;20063;-74
2023/06/05 12:55:51;;;;;;;3.30;2.08;;;26.80;76.00;;;;;;5027074;28;20048;-74
2023/06/05 12:58:26;;;;;;;3.55;2.47;;;26.60;76.10;;;;;;5011353;28;20068;-74
2023/06/05 13:01:03;;;;;;;3.65;2.00;;;26.70;76.20;;;;;;5011789;28;20061;-74
2023/06/05 13:03:36;;;;;;;3.35;2.20;;;26.60;75.40;;;;;;5012271;28;20049;-74
2023/06/05 13:06:03;;;;;;;3.85;2.00;;;26.40;75.10;;;;;;5025892;28;20126;-74
2023/06/05 13:08:38;;;;;;;5.37;2.30;;;26.40;75.50;;;;;;5029255;28;20134;-74
2023/06/05 13:11:06;;;;;;;5.45;2.50;;;26.40;75.20;;;;;;5025404;28;20056;-74
2023/06/05 13:13:38;;;;;;;3.88;2.22;;;26.50;74.90;;;;;;5028558;28;20061;-75
2023/06/05 13:16:08;;;;;;;4.72;1.95;;;26.70;74.60;;;;;;5024753;28;20060;-75
2023/06/05 13:18:44;;;;;;;6.35;2.20;;;26.40;74.20;;;;;;5044734;28;20053;-75
2023/06/05 13:21:33;;;;;;;3.42;2.05;;;26.80;74.10;;;;;;5030133;28;20059;-76
2023/06/05 13:24:15;;;;;;;3.72;2.30;;;26.90;74.20;;;;;;5030470;28;20099;-74
2023/06/05 13:26:55;;;;;;;3.83;2.03;;;26.80;74.10;;;;;;5061188;28;20062;-74
2023/06/05 13:29:22;;;;;;;3.35;2.30;;;26.60;73.90;;;;;;5084721;28;20062;-73
2023/06/05 13:31:56;;;;;;;5.30;2.22;;;26.50;73.80;;;;;;5085617;28;20044;-75
2023/06/05 13:34:32;;;;;;;3.95;2.13;;;26.40;73.70;;;;;;5086653;28;20044;-74
2023/06/05 13:37:18;;;;;;;4.10;2.00;;;26.50;73.80;;;;;;5072016;28;20066;-75